createdAt,value
2017-04-09T00:02:22.458Z,75.976
2017-04-09T00:05:17.577Z,75.639
2017-04-09T00:08:12.577Z,75.598
2017-04-09T00:11:09.133Z,74.174
2017-04-09T00:14:04.130Z,75.234
2017-04-09T00:16:57.355Z,76.349
2017-04-09T00:19:52.348Z,76.032
2017-04-09T00:22:47.252Z,76.376
2017-04-09T00:25:42.214Z,75.401
2017-04-09T00:28:37.175Z,75.092
2017-04-09T00:31:32.169Z,74.560
2017-04-09T00:34:28.900Z,75.580
2017-04-09T00:37:22.366Z,75.020
2017-04-09T00:40:17.387Z,75.180
2017-04-09T00:43:12.354Z,75.569
2017-04-09T00:46:07.277Z,75.645
2017-04-09T00:49:02.249Z,76.356
2017-04-09T00:51:57.251Z,75.477
2017-04-09T00:54:52.362Z,75.147
2017-04-09T00:57:47.328Z,75.823
2017-04-09T01:00:42.261Z,75.185
2017-04-09T01:03:37.223Z,76.208
2017-04-09T01:06:32.088Z,75.317
2017-04-09T01:09:27.470Z,77.718
2017-04-09T01:12:22.510Z,77.185
2017-04-09T01:15:17.544Z,76.503
2017-04-09T01:18:12.477Z,76.061
2017-04-09T01:21:07.398Z,76.928
2017-04-09T01:24:02.445Z,74.919
2017-04-09T01:26:57.489Z,75.438
2017-04-09T01:29:54.148Z,75.897
2017-04-09T01:32:47.547Z,75.969
2017-04-09T01:35:42.495Z,76.629
2017-04-09T01:38:37.521Z,76.432
2017-04-09T01:41:32.479Z,76.710
2017-04-09T01:44:27.495Z,75.958
2017-04-09T01:47:22.463Z,76.020
2017-04-09T01:50:17.431Z,75.637
2017-04-09T01:53:12.370Z,77.484
2017-04-09T01:56:07.307Z,76.680
2017-04-09T01:59:02.274Z,77.066
2017-04-09T02:01:57.304Z,76.067
2017-04-09T02:04:52.234Z,75.579
2017-04-09T02:07:47.256Z,75.194
2017-04-09T02:10:42.176Z,75.203
2017-04-09T02:13:37.242Z,75.541
2017-04-09T02:16:32.179Z,75.938
2017-04-09T02:19:27.103Z,76.564
2017-04-09T02:22:22.205Z,77.329
2017-04-09T02:25:18.809Z,77.315
2017-04-09T02:28:12.219Z,76.458
2017-04-09T02:31:07.243Z,76.052
2017-04-09T02:34:02.232Z,76.744
2017-04-09T02:36:57.097Z,77.063
2017-04-09T02:39:53.675Z,76.248
2017-04-09T02:42:48.730Z,76.128
2017-04-09T02:45:42.020Z,76.198
2017-04-09T02:48:36.974Z,75.944
2017-04-09T02:51:33.801Z,76.613
2017-04-09T02:54:26.896Z,75.858
2017-04-09T02:57:21.867Z,76.349
2017-04-09T03:00:16.899Z,76.782
2017-04-09T03:03:13.697Z,76.849
2017-04-09T03:06:06.828Z,76.939
2017-04-09T03:09:03.644Z,76.207
2017-04-09T03:11:58.566Z,76.932
2017-04-09T03:14:51.727Z,76.860
2017-04-09T03:17:46.749Z,77.441
2017-04-09T03:20:41.747Z,77.428
2017-04-09T03:23:38.427Z,77.458
2017-04-09T03:26:31.688Z,78.154
2017-04-09T03:29:26.664Z,76.953
2017-04-09T03:32:21.664Z,76.713
2017-04-09T03:35:16.609Z,76.944
2017-04-09T03:38:13.327Z,77.561
2017-04-09T03:41:06.482Z,77.380
2017-04-09T03:44:01.470Z,77.268
2017-04-09T03:46:56.362Z,77.604
2017-04-09T03:49:51.365Z,77.530
2017-04-09T03:52:46.372Z,77.568
2017-04-09T03:55:41.238Z,77.459
2017-04-09T03:58:36.161Z,78.106
2017-04-09T04:01:31.088Z,78.110
2017-04-09T04:04:26.096Z,78.239
2017-04-09T04:07:21.626Z,77.907
2017-04-09T04:10:16.596Z,77.478
2017-04-09T04:13:11.546Z,78.365
2017-04-09T04:16:06.448Z,77.897
2017-04-09T04:19:03.448Z,78.568
2017-04-09T04:21:56.592Z,78.634
2017-04-09T04:24:51.542Z,78.455
2017-04-09T04:27:46.417Z,78.187
2017-04-09T04:30:41.298Z,78.923
2017-04-09T04:33:36.221Z,78.365
2017-04-09T04:36:32.904Z,78.017
2017-04-09T04:39:26.106Z,78.337
2017-04-09T04:42:21.230Z,78.218
2017-04-09T04:45:16.204Z,78.033
2017-04-09T04:48:11.230Z,78.297
2017-04-09T04:51:06.077Z,78.001
2017-04-09T04:54:01.063Z,77.895
2017-04-09T04:56:55.971Z,77.656
2017-04-09T04:59:52.807Z,78.088
2017-04-09T05:02:45.895Z,78.086
2017-04-09T05:05:40.836Z,77.962
2017-04-09T05:08:35.838Z,78.445
2017-04-09T05:11:32.508Z,78.389
2017-04-09T05:14:25.727Z,78.120
2017-04-09T05:17:20.709Z,77.597
2017-04-09T05:20:15.673Z,77.639
2017-04-09T05:23:12.277Z,77.959
2017-04-09T05:26:05.879Z,78.054
2017-04-09T05:29:00.805Z,77.575
2017-04-09T05:31:55.909Z,76.980
2017-04-09T05:34:50.875Z,77.203
2017-04-09T05:37:47.542Z,77.518
2017-04-09T05:40:40.786Z,77.203
2017-04-09T05:43:35.758Z,76.691
2017-04-09T05:46:30.815Z,76.970
2017-04-09T05:49:25.985Z,75.956
2017-04-09T05:52:21.042Z,75.750
2017-04-09T05:55:16.037Z,76.008
2017-04-09T05:58:11.074Z,75.305
2017-04-09T06:01:06.143Z,74.370
2017-04-09T06:04:01.163Z,74.282
2017-04-09T06:06:56.228Z,73.454
2017-04-09T06:09:51.290Z,72.933
2017-04-09T06:12:46.365Z,72.966
2017-04-09T06:15:41.484Z,71.406
2017-04-09T06:18:36.577Z,70.036
2017-04-09T06:21:31.617Z,69.395
2017-04-09T06:24:26.670Z,70.372
2017-04-09T06:27:21.775Z,68.075
2017-04-09T06:30:16.937Z,68.193
2017-04-09T06:33:12.091Z,67.718
2017-04-09T06:36:07.121Z,67.009
2017-04-09T06:39:02.487Z,67.509
2017-04-09T06:41:57.646Z,65.851
2017-04-09T06:44:53.116Z,59.627
2017-04-09T06:47:49.043Z,47.576
2017-04-09T06:50:45.204Z,37.904
2017-04-09T06:53:41.382Z,32.500
2017-04-09T06:56:39.171Z,28.443
2017-04-09T06:59:33.478Z,25.625
2017-04-09T07:02:29.273Z,29.776
2017-04-09T07:05:25.145Z,30.085
2017-04-09T07:08:21.123Z,27.173
2017-04-09T07:11:17.248Z,22.135
2017-04-09T07:14:13.460Z,23.523
2017-04-09T07:17:09.668Z,21.197
2017-04-09T07:20:05.867Z,23.596
2017-04-09T07:23:02.343Z,28.693
2017-04-09T07:25:58.826Z,27.938
2017-04-09T07:28:55.115Z,35.127
2017-04-09T07:31:51.496Z,23.181
2017-04-09T07:34:47.820Z,25.232
2017-04-09T07:37:44.003Z,22.053
2017-04-09T07:40:40.387Z,38.787
2017-04-09T07:43:36.593Z,36.274
2017-04-09T07:46:32.954Z,23.657
2017-04-09T07:49:29.216Z,24.575
2017-04-09T07:52:25.581Z,24.331
2017-04-09T07:55:21.838Z,21.127
2017-04-09T07:58:18.049Z,31.030
2017-04-09T08:01:14.365Z,25.260
2017-04-09T08:04:10.690Z,28.887
2017-04-09T08:07:06.905Z,15.873
2017-04-09T08:10:03.250Z,17.040
2017-04-09T08:12:59.664Z,19.104
2017-04-09T08:15:56.099Z,15.001
2017-04-09T08:18:52.393Z,14.722
2017-04-09T08:21:48.622Z,13.721
2017-04-09T08:24:44.005Z,13.632
2017-04-09T08:27:38.907Z,17.638
2017-04-09T08:30:34.193Z,26.092
2017-04-09T08:33:29.692Z,15.357
2017-04-09T08:36:25.172Z,17.884
2017-04-09T08:39:20.683Z,16.214
2017-04-09T08:42:16.352Z,15.530
2017-04-09T08:45:11.886Z,14.185
2017-04-09T08:48:07.703Z,15.208
2017-04-09T08:51:03.103Z,16.581
2017-04-09T08:53:57.824Z,13.695
2017-04-09T08:56:54.759Z,15.590
2017-04-09T08:59:48.166Z,19.829
2017-04-09T09:02:42.918Z,17.854
2017-04-09T09:05:37.993Z,20.308
2017-04-09T09:08:33.337Z,16.289
2017-04-09T09:11:28.937Z,21.622
2017-04-09T09:14:24.141Z,15.756
2017-04-09T09:17:20.908Z,15.096
2017-04-09T09:20:14.265Z,15.351
2017-04-09T09:23:09.593Z,15.496
2017-04-09T09:26:04.788Z,18.476
2017-04-09T09:29:00.164Z,12.215
2017-04-09T09:31:55.396Z,13.010
2017-04-09T09:34:50.283Z,12.111
2017-04-09T09:37:44.985Z,16.121
2017-04-09T09:40:39.643Z,16.141
2017-04-09T09:43:34.185Z,12.097
2017-04-09T09:46:28.793Z,15.820
2017-04-09T09:49:23.397Z,11.952
2017-04-09T09:52:17.797Z,13.080
2017-04-09T09:55:12.471Z,14.581
2017-04-09T09:58:07.236Z,13.715
2017-04-09T10:01:01.978Z,15.410
2017-04-09T10:03:56.862Z,12.301
2017-04-09T10:06:51.346Z,11.918
2017-04-09T10:09:45.743Z,12.485
2017-04-09T10:12:40.280Z,14.208
2017-04-09T10:15:34.905Z,9.580
2017-04-09T10:18:28.816Z,12.912
2017-04-09T10:21:22.455Z,15.138
2017-04-09T10:24:16.503Z,19.323
2017-04-09T10:27:10.732Z,21.889
2017-04-09T10:30:05.071Z,26.155
2017-04-09T10:32:59.529Z,29.370
2017-04-09T10:35:54.120Z,29.875
2017-04-09T10:38:48.540Z,29.619
2017-04-09T10:41:42.966Z,32.218
2017-04-09T10:44:39.018Z,31.120
2017-04-09T10:47:31.565Z,31.449
2017-04-09T10:50:26.014Z,34.491
2017-04-09T10:53:20.332Z,35.737
2017-04-09T10:56:14.631Z,34.607
2017-04-09T10:59:08.976Z,35.152
2017-04-09T11:02:03.175Z,35.309
2017-04-09T11:04:56.746Z,36.138
2017-04-09T11:07:50.436Z,38.727
2017-04-09T11:10:44.345Z,36.899
2017-04-09T11:13:38.356Z,36.339
2017-04-09T11:16:33.975Z,36.223
2017-04-09T11:19:26.353Z,35.578
2017-04-09T11:22:20.018Z,34.616
2017-04-09T11:25:13.547Z,35.587
2017-04-09T11:28:08.673Z,38.851
2017-04-09T11:31:05.534Z,37.487
2017-04-09T11:33:58.757Z,36.166
2017-04-09T11:36:53.869Z,37.451
2017-04-09T11:39:48.331Z,38.378
2017-04-09T11:42:42.473Z,36.624
2017-04-09T11:45:37.039Z,39.069
2017-04-09T11:48:31.271Z,39.825
2017-04-09T11:51:25.436Z,38.266
2017-04-09T11:54:18.601Z,39.912
2017-04-09T11:57:13.834Z,40.770
2017-04-09T12:00:09.577Z,39.547
2017-04-09T12:03:04.884Z,39.923
2017-04-09T12:06:00.191Z,39.853
2017-04-09T12:08:57.210Z,40.121
2017-04-09T12:11:50.855Z,41.276
2017-04-09T12:14:46.139Z,41.601
2017-04-09T12:17:41.735Z,38.022
2017-04-09T12:20:37.006Z,40.583
2017-04-09T12:23:32.141Z,40.687
2017-04-09T12:26:29.160Z,40.574
2017-04-09T12:29:22.725Z,41.642
2017-04-09T12:32:17.980Z,39.633
2017-04-09T12:35:13.253Z,39.035
2017-04-09T12:38:08.510Z,42.033
2017-04-09T12:41:03.791Z,40.798
2017-04-09T12:43:59.028Z,41.561
2017-04-09T12:46:54.261Z,39.906
2017-04-09T12:49:49.490Z,40.747
2017-04-09T12:52:44.695Z,40.675
2017-04-09T12:55:39.962Z,40.261
2017-04-09T12:58:35.229Z,39.214
2017-04-09T13:01:30.563Z,40.899
2017-04-09T13:04:25.855Z,39.764
2017-04-09T13:10:16.412Z,40.766
2017-04-09T13:13:11.767Z,40.778
2017-04-09T13:16:07.009Z,39.070
2017-04-09T13:19:02.603Z,40.788
2017-04-09T13:21:57.938Z,39.971
2017-04-09T13:24:53.242Z,39.075
2017-04-09T13:27:48.491Z,41.639
2017-04-09T13:30:43.661Z,41.215
2017-04-09T13:33:38.853Z,41.205
2017-04-09T13:36:33.992Z,40.666
2017-04-09T13:39:30.867Z,41.303
2017-04-09T13:42:24.283Z,39.911
2017-04-09T13:45:21.241Z,44.130
2017-04-09T13:48:14.628Z,41.636
2017-04-09T13:51:09.667Z,40.802
2017-04-09T13:54:04.693Z,41.483
2017-04-09T13:56:59.150Z,41.983
2017-04-09T13:59:53.973Z,39.420
2017-04-09T14:02:48.650Z,39.342
2017-04-09T14:05:42.974Z,40.011
2017-04-09T14:08:37.400Z,41.860
2017-04-09T14:11:32.362Z,41.256
2017-04-09T14:14:27.244Z,42.094
2017-04-09T14:17:22.534Z,41.753
2017-04-09T14:20:17.736Z,40.643
2017-04-09T14:23:12.790Z,40.210
2017-04-09T14:26:08.033Z,39.753
2017-04-09T14:29:03.303Z,42.013
2017-04-09T18:11:48.394Z,57.045
2017-04-09T18:14:38.536Z,54.927
2017-04-09T18:17:33.493Z,55.946
2017-04-09T18:20:28.302Z,54.762
2017-04-09T18:23:23.257Z,57.134
2017-04-09T18:26:18.051Z,57.973
2017-04-09T18:29:12.134Z,57.389
2017-04-09T18:32:05.693Z,56.120
2017-04-09T18:35:00.525Z,57.816
2017-04-09T18:37:55.224Z,56.205
2017-04-09T18:40:49.852Z,59.231
2017-04-09T18:43:44.204Z,59.717
2017-04-09T18:46:38.231Z,60.784
2017-04-09T18:49:32.393Z,59.919
2017-04-09T18:52:26.391Z,60.277
2017-04-09T18:55:20.291Z,60.578
2017-04-09T18:58:14.031Z,62.075
2017-04-09T19:01:08.017Z,62.124
2017-04-09T19:04:01.949Z,62.359
2017-04-09T19:06:55.894Z,63.888
2017-04-09T19:09:49.849Z,62.960
2017-04-09T19:12:45.526Z,63.400
2017-04-09T19:15:39.343Z,63.041
2017-04-09T19:18:32.184Z,64.041
2017-04-09T19:21:26.858Z,64.728
2017-04-09T19:24:21.628Z,64.675
2017-04-09T19:27:16.088Z,66.222
2017-04-09T19:30:10.660Z,65.666
2017-04-09T19:33:05.232Z,65.695
2017-04-09T19:36:01.513Z,66.495
2017-04-09T19:38:54.467Z,66.505
2017-04-09T19:41:48.895Z,67.799
2017-04-09T19:44:43.358Z,66.708
2017-04-09T19:47:37.847Z,67.888
2017-04-09T19:50:32.210Z,67.140
2017-04-09T19:53:26.675Z,67.898
2017-04-09T19:56:21.210Z,68.026
2017-04-09T19:59:17.334Z,69.911
2017-04-09T20:02:10.274Z,69.009
2017-04-09T20:05:06.741Z,69.475
2017-04-09T20:07:59.671Z,69.971
2017-04-09T20:10:54.565Z,69.851
2017-04-09T20:13:50.994Z,69.854
2017-04-09T20:16:44.181Z,70.213
2017-04-09T20:19:39.077Z,71.317
2017-04-09T20:22:34.197Z,71.329
2017-04-09T20:25:30.806Z,71.838
2017-04-09T20:28:24.026Z,70.977
2017-04-09T20:31:20.662Z,71.967
2017-04-09T20:34:14.029Z,71.721
2017-04-09T20:37:09.034Z,73.114
2017-04-09T20:40:04.104Z,73.094
2017-04-09T20:42:59.147Z,73.222
2017-04-09T20:45:54.238Z,72.865
2017-04-09T20:48:49.122Z,72.710
2017-04-09T20:51:44.049Z,72.975
2017-04-09T20:54:38.966Z,73.519
2017-04-09T20:57:35.816Z,73.708
2017-04-09T21:00:29.019Z,73.892
2017-04-09T21:03:24.082Z,73.906
2017-04-09T21:06:19.122Z,75.578
2017-04-09T21:09:14.188Z,74.557
2017-04-09T21:12:09.095Z,75.101
2017-04-09T21:15:04.062Z,75.522
2017-04-09T21:17:58.981Z,75.002
2017-04-09T21:20:53.912Z,75.801
2017-04-09T21:23:48.956Z,76.549
2017-04-09T21:26:43.967Z,76.554
2017-04-09T21:29:40.638Z,77.579
2017-04-09T21:32:33.989Z,78.016
2017-04-09T21:35:28.929Z,77.126
2017-04-09T21:38:24.097Z,76.789
2017-04-09T21:41:20.890Z,77.185
2017-04-09T21:44:14.338Z,77.901
2017-04-09T21:47:09.386Z,78.083
2017-04-09T21:50:06.165Z,77.886
2017-04-09T21:52:59.521Z,77.789
2017-04-09T21:55:54.666Z,78.213
2017-04-09T21:58:49.667Z,77.458
2017-04-09T22:01:44.711Z,77.728
2017-04-09T22:04:41.340Z,78.323
2017-04-09T22:07:34.646Z,78.862
2017-04-09T22:10:29.700Z,78.921
2017-04-09T22:13:24.662Z,78.837
2017-04-09T22:16:19.673Z,79.143
2017-04-09T22:19:16.547Z,78.780
2017-04-09T22:22:09.846Z,80.000
2017-04-09T22:25:04.777Z,80.669
2017-04-09T22:27:59.792Z,80.848
2017-04-09T22:30:54.704Z,80.293
2017-04-09T22:33:51.403Z,81.243
2017-04-09T22:36:46.457Z,80.342
2017-04-09T22:39:39.758Z,80.167
2017-04-09T22:42:34.759Z,80.129
2017-04-09T22:45:31.439Z,80.428
2017-04-09T22:48:24.806Z,80.800
2017-04-09T22:51:19.796Z,80.991
2017-04-09T22:54:14.823Z,80.646
2017-04-09T22:57:11.482Z,81.064
2017-04-09T23:00:06.571Z,81.580
2017-04-09T23:02:59.933Z,82.022
2017-04-09T23:05:54.881Z,82.513
2017-04-09T23:08:49.955Z,82.295
2017-04-09T23:11:44.883Z,82.304
2017-04-09T23:14:41.522Z,82.089
2017-04-09T23:17:36.479Z,82.016
2017-04-09T23:20:29.771Z,81.964
2017-04-09T23:23:24.835Z,81.419
2017-04-09T23:26:19.754Z,82.264
2017-04-09T23:29:16.493Z,82.425
2017-04-09T23:32:09.719Z,83.262
2017-04-09T23:35:04.694Z,82.934
2017-04-09T23:37:59.694Z,83.350
2017-04-09T23:40:54.515Z,82.937
2017-04-09T23:43:49.512Z,83.439
2017-04-09T23:46:46.224Z,83.120
2017-04-09T23:49:40.122Z,83.499
2017-04-09T23:52:34.443Z,83.350
2017-04-09T23:55:31.135Z,83.329
2017-04-09T23:58:24.389Z,83.289
